sensor_id;sensor_type;location;lat;lon;timestamp;P1;durP1;ratioP1;P2;durP2;ratioP2
974;SDS011;6115;49.296;10.602;2022-09-28T00:02:39;3.10;;;1.73;;
974;SDS011;6115;49.296;10.602;2022-09-28T00:07:40;2.63;;;1.73;;
974;SDS011;6115;49.296;10.602;2022-09-28T00:12:41;2.77;;;1.47;;
974;SDS011;6115;49.296;10.602;2022-09-28T00:17:41;3.43;;;2.03;;
974;SDS011;6115;49.296;10.602;2022-09-28T00:22:43;2.20;;;2.00;;
974;SDS011;6115;49.296;10.602;2022-09-28T00:27:48;4.10;;;1.50;;
974;SDS011;6115;49.296;10.602;2022-09-28T00:32:50;3.50;;;1.80;;
974;SDS011;6115;49.296;10.602;2022-09-28T00:37:50;2.30;;;2.10;;
974;SDS011;6115;49.296;10.602;2022-09-28T00:42:51;2.60;;;1.67;;
974;SDS011;6115;49.296;10.602;2022-09-28T00:47:53;3.47;;;1.70;;
974;SDS011;6115;49.296;10.602;2022-09-28T00:53:04;2.07;;;1.87;;
974;SDS011;6115;49.296;10.602;2022-09-28T00:58:13;2.13;;;1.57;;
974;SDS011;6115;49.296;10.602;2022-09-28T01:03:18;2.77;;;1.73;;
974;SDS011;6115;49.296;10.602;2022-09-28T01:08:18;2.13;;;1.50;;
974;SDS011;6115;49.296;10.602;2022-09-28T01:13:22;1.47;;;1.33;;
974;SDS011;6115;49.296;10.602;2022-09-28T01:18:33;1.83;;;1.40;;
974;SDS011;6115;49.296;10.602;2022-09-28T01:24:07;5.23;;;1.33;;
974;SDS011;6115;49.296;10.602;2022-09-28T01:29:24;1.30;;;1.10;;
974;SDS011;6115;49.296;10.602;2022-09-28T01:34:40;1.73;;;1.20;;
974;SDS011;6115;49.296;10.602;2022-09-28T01:39:49;1.13;;;1.03;;
974;SDS011;6115;49.296;10.602;2022-09-28T01:44:53;1.50;;;1.00;;
974;SDS011;6115;49.296;10.602;2022-09-28T01:50:01;3.53;;;1.40;;
974;SDS011;6115;49.296;10.602;2022-09-28T02:00:25;1.20;;;0.90;;
974;SDS011;6115;49.296;10.602;2022-09-28T02:05:28;4.30;;;1.10;;
974;SDS011;6115;49.296;10.602;2022-09-28T02:10:34;4.00;;;1.00;;
974;SDS011;6115;49.296;10.602;2022-09-28T02:15:49;2.00;;;1.10;;
974;SDS011;6115;49.296;10.602;2022-09-28T02:20:58;1.27;;;0.90;;
974;SDS011;6115;49.296;10.602;2022-09-28T02:26:08;1.90;;;1.10;;
974;SDS011;6115;49.296;10.602;2022-09-28T02:31:12;2.83;;;1.20;;
974;SDS011;6115;49.296;10.602;2022-09-28T02:36:13;1.50;;;1.40;;
974;SDS011;6115;49.296;10.602;2022-09-28T02:46:44;2.83;;;1.40;;
974;SDS011;6115;49.296;10.602;2022-09-28T02:56:51;2.23;;;1.70;;
974;SDS011;6115;49.296;10.602;2022-09-28T03:08:04;3.67;;;2.10;;
974;SDS011;6115;49.296;10.602;2022-09-28T03:12:57;2.57;;;2.00;;
974;SDS011;6115;49.296;10.602;2022-09-28T03:17:59;4.27;;;2.87;;
974;SDS011;6115;49.296;10.602;2022-09-28T03:23:00;3.30;;;2.90;;
974;SDS011;6115;49.296;10.602;2022-09-28T03:28:00;3.40;;;3.10;;
974;SDS011;6115;49.296;10.602;2022-09-28T03:33:01;6.73;;;3.33;;
974;SDS011;6115;49.296;10.602;2022-09-28T03:38:02;4.13;;;3.20;;
974;SDS011;6115;49.296;10.602;2022-09-28T03:43:02;3.73;;;3.00;;
974;SDS011;6115;49.296;10.602;2022-09-28T03:48:03;4.93;;;3.30;;
974;SDS011;6115;49.296;10.602;2022-09-28T03:53:04;3.63;;;2.90;;
974;SDS011;6115;49.296;10.602;2022-09-28T03:58:04;5.73;;;3.30;;
974;SDS011;6115;49.296;10.602;2022-09-28T04:03:05;5.77;;;3.83;;
974;SDS011;6115;49.296;10.602;2022-09-28T04:08:05;6.40;;;4.07;;
974;SDS011;6115;49.296;10.602;2022-09-28T04:13:06;5.90;;;4.00;;
974;SDS011;6115;49.296;10.602;2022-09-28T04:18:10;4.23;;;3.83;;
974;SDS011;6115;49.296;10.602;2022-09-28T04:23:13;5.30;;;4.80;;
974;SDS011;6115;49.296;10.602;2022-09-28T04:28:14;5.53;;;5.03;;
974;SDS011;6115;49.296;10.602;2022-09-28T04:33:33;4.37;;;3.97;;
974;SDS011;6115;49.296;10.602;2022-09-28T04:38:34;9.70;;;8.00;;
974;SDS011;6115;49.296;10.602;2022-09-28T04:43:34;8.33;;;5.83;;
974;SDS011;6115;49.296;10.602;2022-09-28T04:48:36;7.17;;;6.40;;
974;SDS011;6115;49.296;10.602;2022-09-28T04:53:37;3.80;;;3.40;;
974;SDS011;6115;49.296;10.602;2022-09-28T04:58:37;5.30;;;4.70;;
974;SDS011;6115;49.296;10.602;2022-09-28T05:03:38;9.70;;;7.13;;
974;SDS011;6115;49.296;10.602;2022-09-28T05:08:39;15.37;;;7.23;;
974;SDS011;6115;49.296;10.602;2022-09-28T05:13:41;23.40;;;11.20;;
974;SDS011;6115;49.296;10.602;2022-09-28T05:18:47;6.30;;;4.93;;
974;SDS011;6115;49.296;10.602;2022-09-28T05:23:48;6.70;;;4.63;;
974;SDS011;6115;49.296;10.602;2022-09-28T05:28:48;6.50;;;3.60;;
974;SDS011;6115;49.296;10.602;2022-09-28T05:33:49;6.00;;;5.50;;
974;SDS011;6115;49.296;10.602;2022-09-28T05:38:50;6.83;;;4.80;;
974;SDS011;6115;49.296;10.602;2022-09-28T05:43:50;4.90;;;2.70;;
974;SDS011;6115;49.296;10.602;2022-09-28T05:48:51;3.20;;;2.90;;
974;SDS011;6115;49.296;10.602;2022-09-28T05:53:53;8.03;;;7.03;;
974;SDS011;6115;49.296;10.602;2022-09-28T05:58:54;7.00;;;4.80;;
974;SDS011;6115;49.296;10.602;2022-09-28T06:03:57;3.87;;;3.47;;
974;SDS011;6115;49.296;10.602;2022-09-28T06:08:58;4.37;;;4.07;;
974;SDS011;6115;49.296;10.602;2022-09-28T06:13:58;2.93;;;2.60;;
974;SDS011;6115;49.296;10.602;2022-09-28T06:18:59;3.60;;;1.50;;
974;SDS011;6115;49.296;10.602;2022-09-28T06:24:00;2.63;;;1.80;;
974;SDS011;6115;49.296;10.602;2022-09-28T06:29:01;3.50;;;1.77;;
974;SDS011;6115;49.296;10.602;2022-09-28T06:34:02;2.80;;;2.40;;
974;SDS011;6115;49.296;10.602;2022-09-28T06:39:03;5.30;;;3.00;;
974;SDS011;6115;49.296;10.602;2022-09-28T06:44:03;5.20;;;3.77;;
974;SDS011;6115;49.296;10.602;2022-09-28T06:49:04;5.57;;;3.77;;
974;SDS011;6115;49.296;10.602;2022-09-28T06:54:08;6.33;;;3.00;;
974;SDS011;6115;49.296;10.602;2022-09-28T06:59:09;4.67;;;3.50;;
974;SDS011;6115;49.296;10.602;2022-09-28T07:04:10;6.43;;;4.20;;
974;SDS011;6115;49.296;10.602;2022-09-28T07:09:10;5.33;;;3.13;;
974;SDS011;6115;49.296;10.602;2022-09-28T07:14:11;5.17;;;3.93;;
974;SDS011;6115;49.296;10.602;2022-09-28T07:19:11;8.00;;;3.77;;
974;SDS011;6115;49.296;10.602;2022-09-28T07:24:15;4.87;;;3.13;;
974;SDS011;6115;49.296;10.602;2022-09-28T07:29:15;6.30;;;3.90;;
974;SDS011;6115;49.296;10.602;2022-09-28T07:34:16;5.73;;;4.43;;
974;SDS011;6115;49.296;10.602;2022-09-28T07:39:17;5.97;;;5.37;;
974;SDS011;6115;49.296;10.602;2022-09-28T07:44:18;6.80;;;3.60;;
974;SDS011;6115;49.296;10.602;2022-09-28T07:49:18;4.23;;;3.83;;
974;SDS011;6115;49.296;10.602;2022-09-28T07:54:21;5.93;;;3.40;;
974;SDS011;6115;49.296;10.602;2022-09-28T07:59:21;6.27;;;4.43;;
974;SDS011;6115;49.296;10.602;2022-09-28T08:04:23;8.50;;;5.67;;
974;SDS011;6115;49.296;10.602;2022-09-28T08:09:24;7.13;;;4.33;;
974;SDS011;6115;49.296;10.602;2022-09-28T08:14:24;3.63;;;3.33;;
974;SDS011;6115;49.296;10.602;2022-09-28T08:19:26;4.10;;;3.70;;
974;SDS011;6115;49.296;10.602;2022-09-28T08:24:47;5.00;;;4.33;;
974;SDS011;6115;49.296;10.602;2022-09-28T08:29:47;3.60;;;3.00;;
974;SDS011;6115;49.296;10.602;2022-09-28T08:34:48;3.70;;;3.40;;
974;SDS011;6115;49.296;10.602;2022-09-28T08:39:48;2.87;;;2.57;;
974;SDS011;6115;49.296;10.602;2022-09-28T08:44:50;2.53;;;2.27;;
974;SDS011;6115;49.296;10.602;2022-09-28T08:49:56;2.63;;;2.43;;
974;SDS011;6115;49.296;10.602;2022-09-28T09:00:46;5.03;;;2.57;;
974;SDS011;6115;49.296;10.602;2022-09-28T09:06:10;2.53;;;1.90;;
974;SDS011;6115;49.296;10.602;2022-09-28T09:11:41;5.20;;;3.13;;
974;SDS011;6115;49.296;10.602;2022-09-28T09:33:14;3.07;;;1.57;;
974;SDS011;6115;49.296;10.602;2022-09-28T09:38:44;1.90;;;1.80;;
974;SDS011;6115;49.296;10.602;2022-09-28T09:44:01;3.40;;;1.57;;
974;SDS011;6115;49.296;10.602;2022-09-28T09:49:57;2.53;;;1.57;;
974;SDS011;6115;49.296;10.602;2022-09-28T09:54:55;1.53;;;1.37;;
974;SDS011;6115;49.296;10.602;2022-09-28T09:59:57;1.40;;;1.20;;
974;SDS011;6115;49.296;10.602;2022-09-28T10:05:05;1.97;;;1.23;;
974;SDS011;6115;49.296;10.602;2022-09-28T10:10:19;1.80;;;1.10;;
974;SDS011;6115;49.296;10.602;2022-09-28T10:15:27;1.90;;;1.40;;
974;SDS011;6115;49.296;10.602;2022-09-28T10:20:30;1.57;;;1.03;;
974;SDS011;6115;49.296;10.602;2022-09-28T10:25:35;2.03;;;1.20;;
974;SDS011;6115;49.296;10.602;2022-09-28T10:30:37;3.93;;;1.40;;
974;SDS011;6115;49.296;10.602;2022-09-28T10:35:41;3.00;;;1.30;;
974;SDS011;6115;49.296;10.602;2022-09-28T10:40:45;2.80;;;1.40;;
974;SDS011;6115;49.296;10.602;2022-09-28T10:45:59;2.27;;;0.90;;
974;SDS011;6115;49.296;10.602;2022-09-28T10:51:05;1.43;;;1.10;;
974;SDS011;6115;49.296;10.602;2022-09-28T10:56:17;1.50;;;1.33;;
974;SDS011;6115;49.296;10.602;2022-09-28T11:01:20;1.60;;;1.17;;
974;SDS011;6115;49.296;10.602;2022-09-28T11:06:24;2.23;;;1.23;;
974;SDS011;6115;49.296;10.602;2022-09-28T11:11:27;2.93;;;1.30;;
974;SDS011;6115;49.296;10.602;2022-09-28T11:16:29;2.27;;;1.57;;
974;SDS011;6115;49.296;10.602;2022-09-28T11:21:41;8.90;;;1.70;;
974;SDS011;6115;49.296;10.602;2022-09-28T11:26:44;2.37;;;1.80;;
974;SDS011;6115;49.296;10.602;2022-09-28T11:31:47;2.03;;;1.43;;
974;SDS011;6115;49.296;10.602;2022-09-28T11:42:13;1.87;;;1.00;;
974;SDS011;6115;49.296;10.602;2022-09-28T11:52:42;1.43;;;1.00;;
974;SDS011;6115;49.296;10.602;2022-09-28T12:03:17;1.60;;;1.30;;
974;SDS011;6115;49.296;10.602;2022-09-28T12:08:35;3.67;;;1.17;;
974;SDS011;6115;49.296;10.602;2022-09-28T12:13:43;1.57;;;1.10;;
974;SDS011;6115;49.296;10.602;2022-09-28T12:24:17;1.77;;;1.00;;
974;SDS011;6115;49.296;10.602;2022-09-28T12:29:21;2.40;;;1.40;;
974;SDS011;6115;49.296;10.602;2022-09-28T12:34:25;2.03;;;1.07;;
974;SDS011;6115;49.296;10.602;2022-09-28T12:39:30;3.00;;;1.33;;
974;SDS011;6115;49.296;10.602;2022-09-28T12:44:59;2.00;;;1.40;;
974;SDS011;6115;49.296;10.602;2022-09-28T13:00:48;4.07;;;2.57;;
974;SDS011;6115;49.296;10.602;2022-09-28T13:06:21;2.23;;;1.90;;
974;SDS011;6115;49.296;10.602;2022-09-28T13:27:37;2.03;;;1.90;;
974;SDS011;6115;49.296;10.602;2022-09-28T13:33:00;2.53;;;1.60;;
974;SDS011;6115;49.296;10.602;2022-09-28T13:43:20;1.70;;;1.60;;
974;SDS011;6115;49.296;10.602;2022-09-28T13:48:40;2.53;;;1.77;;
974;SDS011;6115;49.296;10.602;2022-09-28T13:59:26;1.77;;;1.50;;
974;SDS011;6115;49.296;10.602;2022-09-28T14:20:36;1.73;;;1.30;;
974;SDS011;6115;49.296;10.602;2022-09-28T14:25:44;5.90;;;1.50;;
974;SDS011;6115;49.296;10.602;2022-09-28T14:30:59;1.93;;;1.40;;
974;SDS011;6115;49.296;10.602;2022-09-28T14:36:19;2.90;;;1.37;;
974;SDS011;6115;49.296;10.602;2022-09-28T14:41:42;2.40;;;2.03;;
974;SDS011;6115;49.296;10.602;2022-09-28T14:46:45;2.10;;;1.40;;
974;SDS011;6115;49.296;10.602;2022-09-28T15:01:57;2.37;;;1.67;;
974;SDS011;6115;49.296;10.602;2022-09-28T15:07:02;3.20;;;2.00;;
974;SDS011;6115;49.296;10.602;2022-09-28T15:17:12;3.60;;;1.70;;
974;SDS011;6115;49.296;10.602;2022-09-28T15:22:16;4.07;;;1.87;;
974;SDS011;6115;49.296;10.602;2022-09-28T15:27:18;2.47;;;1.90;;
974;SDS011;6115;49.296;10.602;2022-09-28T15:32:25;2.83;;;2.00;;
974;SDS011;6115;49.296;10.602;2022-09-28T15:37:32;2.70;;;2.03;;
974;SDS011;6115;49.296;10.602;2022-09-28T15:42:35;2.93;;;1.97;;
974;SDS011;6115;49.296;10.602;2022-09-28T15:47:36;2.70;;;2.00;;
974;SDS011;6115;49.296;10.602;2022-09-28T15:52:50;2.80;;;2.00;;
974;SDS011;6115;49.296;10.602;2022-09-28T16:03:28;2.67;;;2.10;;
974;SDS011;6115;49.296;10.602;2022-09-28T16:19:11;6.13;;;2.70;;
974;SDS011;6115;49.296;10.602;2022-09-28T16:24:33;4.70;;;2.73;;
974;SDS011;6115;49.296;10.602;2022-09-28T16:29:36;3.77;;;2.30;;
974;SDS011;6115;49.296;10.602;2022-09-28T16:34:39;2.63;;;2.17;;
974;SDS011;6115;49.296;10.602;2022-09-28T16:39:42;3.73;;;2.83;;
974;SDS011;6115;49.296;10.602;2022-09-28T16:44:42;3.00;;;2.70;;
974;SDS011;6115;49.296;10.602;2022-09-28T16:49:46;3.60;;;2.27;;
974;SDS011;6115;49.296;10.602;2022-09-28T16:54:48;4.60;;;2.90;;
974;SDS011;6115;49.296;10.602;2022-09-28T17:00:08;8.23;;;4.93;;
974;SDS011;6115;49.296;10.602;2022-09-28T17:05:14;4.43;;;3.53;;
974;SDS011;6115;49.296;10.602;2022-09-28T17:10:17;6.33;;;3.23;;
974;SDS011;6115;49.296;10.602;2022-09-28T17:15:31;6.60;;;4.90;;
974;SDS011;6115;49.296;10.602;2022-09-28T17:20:32;4.00;;;3.10;;
974;SDS011;6115;49.296;10.602;2022-09-28T17:25:34;3.70;;;2.87;;
974;SDS011;6115;49.296;10.602;2022-09-28T17:30:36;6.77;;;4.83;;
974;SDS011;6115;49.296;10.602;2022-09-28T17:35:37;4.37;;;3.00;;
974;SDS011;6115;49.296;10.602;2022-09-28T17:40:38;2.80;;;2.50;;
974;SDS011;6115;49.296;10.602;2022-09-28T17:45:40;6.17;;;3.90;;
974;SDS011;6115;49.296;10.602;2022-09-28T17:50:42;11.00;;;6.20;;
974;SDS011;6115;49.296;10.602;2022-09-28T17:55:44;6.90;;;4.90;;
974;SDS011;6115;49.296;10.602;2022-09-28T18:00:46;3.80;;;3.30;;
974;SDS011;6115;49.296;10.602;2022-09-28T18:05:49;4.20;;;2.57;;
974;SDS011;6115;49.296;10.602;2022-09-28T18:11:06;5.90;;;5.40;;
974;SDS011;6115;49.296;10.602;2022-09-28T18:16:07;6.80;;;6.10;;
974;SDS011;6115;49.296;10.602;2022-09-28T18:21:07;8.60;;;3.70;;
974;SDS011;6115;49.296;10.602;2022-09-28T18:26:12;8.13;;;7.40;;
974;SDS011;6115;49.296;10.602;2022-09-28T18:31:14;15.23;;;4.70;;
974;SDS011;6115;49.296;10.602;2022-09-28T18:36:15;6.53;;;4.63;;
974;SDS011;6115;49.296;10.602;2022-09-28T18:41:15;5.50;;;4.03;;
974;SDS011;6115;49.296;10.602;2022-09-28T18:46:16;6.77;;;5.00;;
974;SDS011;6115;49.296;10.602;2022-09-28T18:51:17;6.50;;;4.20;;
974;SDS011;6115;49.296;10.602;2022-09-28T18:56:18;5.37;;;4.03;;
974;SDS011;6115;49.296;10.602;2022-09-28T19:01:20;7.40;;;4.40;;
974;SDS011;6115;49.296;10.602;2022-09-28T19:06:20;6.40;;;4.90;;
974;SDS011;6115;49.296;10.602;2022-09-28T19:11:21;5.53;;;3.87;;
974;SDS011;6115;49.296;10.602;2022-09-28T19:16:24;6.07;;;4.10;;
974;SDS011;6115;49.296;10.602;2022-09-28T19:21:27;6.33;;;4.43;;
974;SDS011;6115;49.296;10.602;2022-09-28T19:26:28;7.00;;;4.33;;
974;SDS011;6115;49.296;10.602;2022-09-28T19:31:29;10.90;;;6.10;;
974;SDS011;6115;49.296;10.602;2022-09-28T19:36:30;7.70;;;6.50;;
974;SDS011;6115;49.296;10.602;2022-09-28T19:41:32;9.17;;;5.87;;
974;SDS011;6115;49.296;10.602;2022-09-28T19:46:40;16.33;;;7.67;;
974;SDS011;6115;49.296;10.602;2022-09-28T19:51:41;11.87;;;9.73;;
974;SDS011;6115;49.296;10.602;2022-09-28T19:56:41;12.50;;;9.67;;
974;SDS011;6115;49.296;10.602;2022-09-28T20:01:43;15.03;;;9.60;;
974;SDS011;6115;49.296;10.602;2022-09-28T20:06:44;12.97;;;8.90;;
974;SDS011;6115;49.296;10.602;2022-09-28T20:11:44;8.53;;;6.60;;
974;SDS011;6115;49.296;10.602;2022-09-28T20:16:45;6.33;;;5.47;;
974;SDS011;6115;49.296;10.602;2022-09-28T20:21:46;7.63;;;6.37;;
974;SDS011;6115;49.296;10.602;2022-09-28T20:26:47;13.57;;;7.10;;
974;SDS011;6115;49.296;10.602;2022-09-28T20:31:48;9.97;;;7.40;;
974;SDS011;6115;49.296;10.602;2022-09-28T20:36:50;9.73;;;8.00;;
974;SDS011;6115;49.296;10.602;2022-09-28T20:41:50;11.70;;;7.67;;
974;SDS011;6115;49.296;10.602;2022-09-28T20:46:51;12.80;;;6.70;;
974;SDS011;6115;49.296;10.602;2022-09-28T20:51:51;8.60;;;5.40;;
974;SDS011;6115;49.296;10.602;2022-09-28T20:56:52;9.13;;;6.10;;
974;SDS011;6115;49.296;10.602;2022-09-28T21:01:53;15.73;;;14.07;;
974;SDS011;6115;49.296;10.602;2022-09-28T21:06:53;20.30;;;14.83;;
974;SDS011;6115;49.296;10.602;2022-09-28T21:11:54;13.10;;;8.60;;
974;SDS011;6115;49.296;10.602;2022-09-28T21:16:54;10.70;;;9.20;;
974;SDS011;6115;49.296;10.602;2022-09-28T21:21:55;11.30;;;8.77;;
974;SDS011;6115;49.296;10.602;2022-09-28T21:26:56;14.40;;;10.40;;
974;SDS011;6115;49.296;10.602;2022-09-28T21:31:57;14.33;;;8.50;;
974;SDS011;6115;49.296;10.602;2022-09-28T21:36:57;12.23;;;8.73;;
974;SDS011;6115;49.296;10.602;2022-09-28T21:41:58;14.07;;;11.33;;
974;SDS011;6115;49.296;10.602;2022-09-28T21:46:58;12.37;;;8.63;;
974;SDS011;6115;49.296;10.602;2022-09-28T21:51:59;14.80;;;9.80;;
974;SDS011;6115;49.296;10.602;2022-09-28T21:57:00;17.83;;;11.07;;
974;SDS011;6115;49.296;10.602;2022-09-28T22:02:01;14.13;;;10.70;;
974;SDS011;6115;49.296;10.602;2022-09-28T22:07:04;12.10;;;8.73;;
974;SDS011;6115;49.296;10.602;2022-09-28T22:12:05;8.60;;;6.23;;
974;SDS011;6115;49.296;10.602;2022-09-28T22:17:06;9.20;;;6.57;;
974;SDS011;6115;49.296;10.602;2022-09-28T22:22:07;8.80;;;7.90;;
974;SDS011;6115;49.296;10.602;2022-09-28T22:27:07;11.23;;;8.33;;
974;SDS011;6115;49.296;10.602;2022-09-28T22:32:08;11.20;;;8.27;;
974;SDS011;6115;49.296;10.602;2022-09-28T22:37:08;9.73;;;7.07;;
974;SDS011;6115;49.296;10.602;2022-09-28T22:42:09;6.90;;;6.20;;
974;SDS011;6115;49.296;10.602;2022-09-28T22:47:09;10.80;;;5.90;;
974;SDS011;6115;49.296;10.602;2022-09-28T22:52:10;6.73;;;5.60;;
974;SDS011;6115;49.296;10.602;2022-09-28T22:57:11;6.50;;;5.50;;
974;SDS011;6115;49.296;10.602;2022-09-28T23:02:11;7.87;;;5.67;;
974;SDS011;6115;49.296;10.602;2022-09-28T23:07:12;7.90;;;5.93;;
974;SDS011;6115;49.296;10.602;2022-09-28T23:12:12;7.70;;;5.40;;
974;SDS011;6115;49.296;10.602;2022-09-28T23:17:13;5.90;;;5.13;;
974;SDS011;6115;49.296;10.602;2022-09-28T23:22:13;6.47;;;5.80;;
974;SDS011;6115;49.296;10.602;2022-09-28T23:27:14;7.57;;;6.40;;
974;SDS011;6115;49.296;10.602;2022-09-28T23:32:15;8.77;;;6.40;;
974;SDS011;6115;49.296;10.602;2022-09-28T23:37:15;8.00;;;5.97;;
974;SDS011;6115;49.296;10.602;2022-09-28T23:42:16;6.50;;;5.50;;
974;SDS011;6115;49.296;10.602;2022-09-28T23:47:16;6.80;;;5.87;;
974;SDS011;6115;49.296;10.602;2022-09-28T23:52:17;6.50;;;5.70;;
974;SDS011;6115;49.296;10.602;2022-09-28T23:57:17;6.10;;;5.50;;
